Climax, Kentucky
Current Conditions -  °F | °C
As of 4:15 PM on Saturday 22 Nov 2014 (Local Time) from KI39 Reporting Station
Overcast Overcast  
Wind Chill: 57°   Ceiling: 9000
Heat Index: 57°   Visibility: 10mi
Dew Point: 28°   Wind: 9mph
Humidity: 33%   Direction: 210°SSW
Pressure: 30.2"   Gusts: 13mph
Location:  37.3528°N, 84.3261°W
Report Text: KI39 222115Z AUTO 21008G11KT 10SM OVC090 14/M02 A3020 RMK AO2
Loading
Personal Weather Stations






























Interactive Weather Map New forecast layout! Learn more

10-Day Weather Forecast

Advertisements
Track Severe Weather on mobile